sensor_id;sensor_type;location;lat;lon;timestamp;temperature;humidity
15765;DHT22;7983;50.744;7.086;2024-01-15T00:00:51;3.80;99.90
15765;DHT22;7983;50.744;7.086;2024-01-15T00:03:17;3.80;99.90
15765;DHT22;7983;50.744;7.086;2024-01-15T00:05:43;3.90;99.90
15765;DHT22;7983;50.744;7.086;2024-01-15T00:08:09;3.80;99.90
15765;DHT22;7983;50.744;7.086;2024-01-15T00:10:37;3.90;99.90
15765;DHT22;7983;50.744;7.086;2024-01-15T00:13:03;3.90;99.90
15765;DHT22;7983;50.744;7.086;2024-01-15T00:15:28;3.90;99.90
15765;DHT22;7983;50.744;7.086;2024-01-15T00:17:56;3.90;99.90
15765;DHT22;7983;50.744;7.086;2024-01-15T00:20:23;3.90;99.90
15765;DHT22;7983;50.744;7.086;2024-01-15T00:22:49;3.90;99.90
15765;DHT22;7983;50.744;7.086;2024-01-15T00:25:17;3.80;99.90
15765;DHT22;7983;50.744;7.086;2024-01-15T00:27:43;3.80;99.90
15765;DHT22;7983;50.744;7.086;2024-01-15T00:30:09;3.90;99.90
15765;DHT22;7983;50.744;7.086;2024-01-15T00:32:39;3.80;99.90
15765;DHT22;7983;50.744;7.086;2024-01-15T00:35:07;3.70;99.90
15765;DHT22;7983;50.744;7.086;2024-01-15T00:37:33;3.70;99.90
15765;DHT22;7983;50.744;7.086;2024-01-15T00:40:01;3.60;99.90
15765;DHT22;7983;50.744;7.086;2024-01-15T00:42:28;3.60;99.90
15765;DHT22;7983;50.744;7.086;2024-01-15T00:44:56;3.50;99.90
15765;DHT22;7983;50.744;7.086;2024-01-15T00:47:21;3.50;99.90
15765;DHT22;7983;50.744;7.086;2024-01-15T00:49:47;3.50;99.90
15765;DHT22;7983;50.744;7.086;2024-01-15T00:52:13;3.40;99.90
15765;DHT22;7983;50.744;7.086;2024-01-15T00:54:40;3.40;99.90
15765;DHT22;7983;50.744;7.086;2024-01-15T00:57:08;3.30;99.90
15765;DHT22;7983;50.744;7.086;2024-01-15T00:59:34;3.30;99.90
15765;DHT22;7983;50.744;7.086;2024-01-15T01:02:00;3.20;99.90
15765;DHT22;7983;50.744;7.086;2024-01-15T01:04:25;3.20;99.90
15765;DHT22;7983;50.744;7.086;2024-01-15T01:06:51;3.30;99.90
15765;DHT22;7983;50.744;7.086;2024-01-15T01:09:19;3.10;99.90
15765;DHT22;7983;50.744;7.086;2024-01-15T01:11:44;3.10;99.90
15765;DHT22;7983;50.744;7.086;2024-01-15T01:14:10;3.10;99.90
15765;DHT22;7983;50.744;7.086;2024-01-15T01:16:35;3.10;99.90
15765;DHT22;7983;50.744;7.086;2024-01-15T01:19:05;3.10;99.90
15765;DHT22;7983;50.744;7.086;2024-01-15T01:21:31;3.10;99.90
15765;DHT22;7983;50.744;7.086;2024-01-15T01:24:04;3.10;99.90
15765;DHT22;7983;50.744;7.086;2024-01-15T01:26:32;3.10;99.90
15765;DHT22;7983;50.744;7.086;2024-01-15T01:29:00;3.10;99.90
15765;DHT22;7983;50.744;7.086;2024-01-15T01:31:25;3.10;99.90
15765;DHT22;7983;50.744;7.086;2024-01-15T01:33:51;3.20;99.90
15765;DHT22;7983;50.744;7.086;2024-01-15T01:36:21;3.10;99.90
15765;DHT22;7983;50.744;7.086;2024-01-15T01:38:47;3.10;99.90
15765;DHT22;7983;50.744;7.086;2024-01-15T01:41:15;3.10;99.90
15765;DHT22;7983;50.744;7.086;2024-01-15T01:43:43;3.00;99.90
15765;DHT22;7983;50.744;7.086;2024-01-15T01:46:09;3.00;99.90
15765;DHT22;7983;50.744;7.086;2024-01-15T01:48:35;3.00;99.90
15765;DHT22;7983;50.744;7.086;2024-01-15T01:51:04;2.90;99.90
15765;DHT22;7983;50.744;7.086;2024-01-15T01:53:32;2.90;99.90
15765;DHT22;7983;50.744;7.086;2024-01-15T01:56:04;2.80;99.90
15765;DHT22;7983;50.744;7.086;2024-01-15T01:58:32;2.80;99.90
15765;DHT22;7983;50.744;7.086;2024-01-15T02:00:59;2.80;99.90
15765;DHT22;7983;50.744;7.086;2024-01-15T02:03:27;2.80;99.90
15765;DHT22;7983;50.744;7.086;2024-01-15T02:05:53;2.80;99.90
15765;DHT22;7983;50.744;7.086;2024-01-15T02:08:19;2.70;99.90
15765;DHT22;7983;50.744;7.086;2024-01-15T02:10:47;2.80;99.90
15765;DHT22;7983;50.744;7.086;2024-01-15T02:13:16;2.80;99.90
15765;DHT22;7983;50.744;7.086;2024-01-15T02:15:42;2.80;99.90
15765;DHT22;7983;50.744;7.086;2024-01-15T02:18:08;2.80;99.90
15765;DHT22;7983;50.744;7.086;2024-01-15T02:20:36;2.80;99.90
15765;DHT22;7983;50.744;7.086;2024-01-15T02:23:09;2.90;99.90
15765;DHT22;7983;50.744;7.086;2024-01-15T02:25:40;3.00;99.90
15765;DHT22;7983;50.744;7.086;2024-01-15T02:28:09;2.90;99.90
15765;DHT22;7983;50.744;7.086;2024-01-15T02:30:40;2.90;99.90
15765;DHT22;7983;50.744;7.086;2024-01-15T02:33:07;3.00;99.90
15765;DHT22;7983;50.744;7.086;2024-01-15T02:35:33;3.00;99.90
15765;DHT22;7983;50.744;7.086;2024-01-15T02:38:02;3.00;99.90
15765;DHT22;7983;50.744;7.086;2024-01-15T02:40:30;3.00;99.90
15765;DHT22;7983;50.744;7.086;2024-01-15T02:42:56;3.00;99.90
15765;DHT22;7983;50.744;7.086;2024-01-15T02:45:22;3.00;99.90
15765;DHT22;7983;50.744;7.086;2024-01-15T02:47:50;3.00;99.90
15765;DHT22;7983;50.744;7.086;2024-01-15T02:50:16;3.00;99.90
15765;DHT22;7983;50.744;7.086;2024-01-15T02:52:46;3.00;99.90
15765;DHT22;7983;50.744;7.086;2024-01-15T02:55:12;3.00;99.90
15765;DHT22;7983;50.744;7.086;2024-01-15T02:57:38;3.00;99.90
15765;DHT22;7983;50.744;7.086;2024-01-15T03:00:06;3.00;99.90
15765;DHT22;7983;50.744;7.086;2024-01-15T03:02:33;3.00;99.90
15765;DHT22;7983;50.744;7.086;2024-01-15T03:05:01;3.00;99.90
15765;DHT22;7983;50.744;7.086;2024-01-15T03:07:28;3.00;99.90
15765;DHT22;7983;50.744;7.086;2024-01-15T03:09:53;3.00;99.90
15765;DHT22;7983;50.744;7.086;2024-01-15T03:12:19;3.00;99.90
15765;DHT22;7983;50.744;7.086;2024-01-15T03:14:49;3.10;99.90
15765;DHT22;7983;50.744;7.086;2024-01-15T03:17:17;3.00;99.90
15765;DHT22;7983;50.744;7.086;2024-01-15T03:19:43;3.10;99.90
15765;DHT22;7983;50.744;7.086;2024-01-15T03:22:08;3.10;99.90
15765;DHT22;7983;50.744;7.086;2024-01-15T03:24:34;3.10;99.90
15765;DHT22;7983;50.744;7.086;2024-01-15T03:27:05;3.10;99.90
15765;DHT22;7983;50.744;7.086;2024-01-15T03:29:30;3.10;99.90
15765;DHT22;7983;50.744;7.086;2024-01-15T03:31:58;3.10;99.90
15765;DHT22;7983;50.744;7.086;2024-01-15T03:34:28;3.10;99.90
15765;DHT22;7983;50.744;7.086;2024-01-15T03:36:59;3.10;99.90
15765;DHT22;7983;50.744;7.086;2024-01-15T03:39:27;3.10;99.90
15765;DHT22;7983;50.744;7.086;2024-01-15T03:41:57;3.10;99.90
15765;DHT22;7983;50.744;7.086;2024-01-15T03:44:23;3.10;99.90
15765;DHT22;7983;50.744;7.086;2024-01-15T03:46:51;3.20;99.90
15765;DHT22;7983;50.744;7.086;2024-01-15T03:49:17;3.20;99.90
15765;DHT22;7983;50.744;7.086;2024-01-15T03:51:42;3.20;99.90
15765;DHT22;7983;50.744;7.086;2024-01-15T03:54:08;3.20;99.90
15765;DHT22;7983;50.744;7.086;2024-01-15T03:56:36;3.30;99.90
15765;DHT22;7983;50.744;7.086;2024-01-15T03:59:02;3.20;99.90
15765;DHT22;7983;50.744;7.086;2024-01-15T04:01:28;3.20;99.90
15765;DHT22;7983;50.744;7.086;2024-01-15T04:03:57;3.20;99.90
15765;DHT22;7983;50.744;7.086;2024-01-15T04:06:25;3.20;99.90
15765;DHT22;7983;50.744;7.086;2024-01-15T04:08:53;3.20;99.90
15765;DHT22;7983;50.744;7.086;2024-01-15T04:11:18;3.20;99.90
15765;DHT22;7983;50.744;7.086;2024-01-15T04:13:44;3.20;99.90
15765;DHT22;7983;50.744;7.086;2024-01-15T04:16:10;3.20;99.90
15765;DHT22;7983;50.744;7.086;2024-01-15T04:18:37;3.20;99.90
15765;DHT22;7983;50.744;7.086;2024-01-15T04:21:06;3.20;99.90
15765;DHT22;7983;50.744;7.086;2024-01-15T04:23:32;3.20;99.90
15765;DHT22;7983;50.744;7.086;2024-01-15T04:26:00;3.20;99.90
15765;DHT22;7983;50.744;7.086;2024-01-15T04:28:26;3.20;99.90
15765;DHT22;7983;50.744;7.086;2024-01-15T04:30:54;3.20;99.90
15765;DHT22;7983;50.744;7.086;2024-01-15T04:33:19;3.20;99.90
15765;DHT22;7983;50.744;7.086;2024-01-15T04:35:45;3.20;99.90
15765;DHT22;7983;50.744;7.086;2024-01-15T04:38:13;3.20;99.90
15765;DHT22;7983;50.744;7.086;2024-01-15T04:40:39;3.20;99.90
15765;DHT22;7983;50.744;7.086;2024-01-15T04:43:06;3.20;99.90
15765;DHT22;7983;50.744;7.086;2024-01-15T04:45:32;3.30;99.90
15765;DHT22;7983;50.744;7.086;2024-01-15T04:47:58;3.20;99.90
15765;DHT22;7983;50.744;7.086;2024-01-15T04:50:26;3.20;99.90
15765;DHT22;7983;50.744;7.086;2024-01-15T04:52:51;3.20;99.90
15765;DHT22;7983;50.744;7.086;2024-01-15T04:55:17;3.20;99.90
15765;DHT22;7983;50.744;7.086;2024-01-15T04:57:42;3.20;99.90
15765;DHT22;7983;50.744;7.086;2024-01-15T05:00:09;3.20;99.90
15765;DHT22;7983;50.744;7.086;2024-01-15T05:02:40;3.20;99.90
15765;DHT22;7983;50.744;7.086;2024-01-15T05:05:10;3.20;99.90
15765;DHT22;7983;50.744;7.086;2024-01-15T05:07:36;3.20;99.90
15765;DHT22;7983;50.744;7.086;2024-01-15T05:10:02;3.20;99.90
15765;DHT22;7983;50.744;7.086;2024-01-15T05:12:28;3.20;99.90
15765;DHT22;7983;50.744;7.086;2024-01-15T05:14:55;3.30;99.90
15765;DHT22;7983;50.744;7.086;2024-01-15T05:17:21;3.30;99.90
15765;DHT22;7983;50.744;7.086;2024-01-15T05:19:49;3.30;99.90
15765;DHT22;7983;50.744;7.086;2024-01-15T05:22:14;3.30;99.90
15765;DHT22;7983;50.744;7.086;2024-01-15T05:24:40;3.30;99.90
15765;DHT22;7983;50.744;7.086;2024-01-15T05:27:06;3.30;99.90
15765;DHT22;7983;50.744;7.086;2024-01-15T05:29:31;3.30;99.90
15765;DHT22;7983;50.744;7.086;2024-01-15T05:31:57;3.40;99.90
15765;DHT22;7983;50.744;7.086;2024-01-15T05:34:23;3.40;99.90
15765;DHT22;7983;50.744;7.086;2024-01-15T05:36:50;3.40;99.90
15765;DHT22;7983;50.744;7.086;2024-01-15T05:39:16;3.40;99.90
15765;DHT22;7983;50.744;7.086;2024-01-15T05:41:42;3.40;99.90
15765;DHT22;7983;50.744;7.086;2024-01-15T05:44:10;3.40;99.90
15765;DHT22;7983;50.744;7.086;2024-01-15T05:46:36;3.40;99.90
15765;DHT22;7983;50.744;7.086;2024-01-15T05:49:01;3.40;99.90
15765;DHT22;7983;50.744;7.086;2024-01-15T05:51:27;3.40;99.90
15765;DHT22;7983;50.744;7.086;2024-01-15T05:53:52;3.40;99.90
15765;DHT22;7983;50.744;7.086;2024-01-15T05:56:20;3.30;99.90
15765;DHT22;7983;50.744;7.086;2024-01-15T05:58:46;3.30;99.90
15765;DHT22;7983;50.744;7.086;2024-01-15T06:01:11;3.30;99.90
15765;DHT22;7983;50.744;7.086;2024-01-15T06:03:39;3.20;99.90
15765;DHT22;7983;50.744;7.086;2024-01-15T06:06:05;3.20;99.90
15765;DHT22;7983;50.744;7.086;2024-01-15T06:08:33;3.20;99.90
15765;DHT22;7983;50.744;7.086;2024-01-15T06:10:58;3.20;99.90
15765;DHT22;7983;50.744;7.086;2024-01-15T06:13:24;3.20;99.90
15765;DHT22;7983;50.744;7.086;2024-01-15T06:15:49;3.20;99.90
15765;DHT22;7983;50.744;7.086;2024-01-15T06:18:15;3.20;99.90
15765;DHT22;7983;50.744;7.086;2024-01-15T06:20:41;3.20;99.90
15765;DHT22;7983;50.744;7.086;2024-01-15T06:23:09;3.30;99.90
15765;DHT22;7983;50.744;7.086;2024-01-15T06:25:37;3.30;99.90
15765;DHT22;7983;50.744;7.086;2024-01-15T06:28:04;3.30;99.90
15765;DHT22;7983;50.744;7.086;2024-01-15T06:30:30;3.30;99.90
15765;DHT22;7983;50.744;7.086;2024-01-15T06:32:58;3.30;99.90
15765;DHT22;7983;50.744;7.086;2024-01-15T06:35:24;3.30;99.90
15765;DHT22;7983;50.744;7.086;2024-01-15T06:37:49;3.30;99.90
15765;DHT22;7983;50.744;7.086;2024-01-15T06:40:15;3.20;99.90
15765;DHT22;7983;50.744;7.086;2024-01-15T06:42:41;3.20;99.90
15765;DHT22;7983;50.744;7.086;2024-01-15T06:45:09;3.20;99.90
15765;DHT22;7983;50.744;7.086;2024-01-15T06:47:39;3.30;99.90
15765;DHT22;7983;50.744;7.086;2024-01-15T06:50:05;3.30;99.90
15765;DHT22;7983;50.744;7.086;2024-01-15T06:52:35;3.30;99.90
15765;DHT22;7983;50.744;7.086;2024-01-15T06:55:03;3.30;99.90
15765;DHT22;7983;50.744;7.086;2024-01-15T06:57:29;3.30;99.90
15765;DHT22;7983;50.744;7.086;2024-01-15T06:59:55;3.20;99.90
15765;DHT22;7983;50.744;7.086;2024-01-15T07:02:20;3.20;99.90
15765;DHT22;7983;50.744;7.086;2024-01-15T07:04:49;3.20;99.90
15765;DHT22;7983;50.744;7.086;2024-01-15T07:07:15;3.20;99.90
15765;DHT22;7983;50.744;7.086;2024-01-15T07:09:40;3.20;99.90
15765;DHT22;7983;50.744;7.086;2024-01-15T07:12:08;3.20;99.90
15765;DHT22;7983;50.744;7.086;2024-01-15T07:14:34;3.10;99.90
15765;DHT22;7983;50.744;7.086;2024-01-15T07:17:00;3.10;99.90
15765;DHT22;7983;50.744;7.086;2024-01-15T07:19:26;3.10;99.90
15765;DHT22;7983;50.744;7.086;2024-01-15T07:21:52;3.10;99.90
15765;DHT22;7983;50.744;7.086;2024-01-15T07:24:17;3.00;99.90
15765;DHT22;7983;50.744;7.086;2024-01-15T07:26:45;3.10;99.90
15765;DHT22;7983;50.744;7.086;2024-01-15T07:29:10;3.10;99.90
15765;DHT22;7983;50.744;7.086;2024-01-15T07:31:36;3.10;99.90
15765;DHT22;7983;50.744;7.086;2024-01-15T07:34:02;3.10;99.90
15765;DHT22;7983;50.744;7.086;2024-01-15T07:36:27;3.10;99.90
15765;DHT22;7983;50.744;7.086;2024-01-15T07:38:55;3.10;99.90
15765;DHT22;7983;50.744;7.086;2024-01-15T07:41:21;3.10;99.90
15765;DHT22;7983;50.744;7.086;2024-01-15T07:43:46;3.10;99.90
15765;DHT22;7983;50.744;7.086;2024-01-15T07:46:12;3.20;99.90
15765;DHT22;7983;50.744;7.086;2024-01-15T07:48:37;3.20;99.90
15765;DHT22;7983;50.744;7.086;2024-01-15T07:51:06;3.20;99.90
15765;DHT22;7983;50.744;7.086;2024-01-15T07:53:34;3.20;99.90
15765;DHT22;7983;50.744;7.086;2024-01-15T07:56:01;3.20;99.90
15765;DHT22;7983;50.744;7.086;2024-01-15T07:58:29;3.20;99.90
15765;DHT22;7983;50.744;7.086;2024-01-15T08:00:57;3.30;99.90
15765;DHT22;7983;50.744;7.086;2024-01-15T08:03:25;3.30;99.90
15765;DHT22;7983;50.744;7.086;2024-01-15T08:05:51;3.30;99.90
15765;DHT22;7983;50.744;7.086;2024-01-15T08:08:18;3.30;99.90
15765;DHT22;7983;50.744;7.086;2024-01-15T08:10:44;3.30;99.90
15765;DHT22;7983;50.744;7.086;2024-01-15T08:13:09;3.40;99.90
15765;DHT22;7983;50.744;7.086;2024-01-15T08:15:37;3.40;99.90
15765;DHT22;7983;50.744;7.086;2024-01-15T08:18:03;3.40;99.90
15765;DHT22;7983;50.744;7.086;2024-01-15T08:20:31;3.40;99.90
15765;DHT22;7983;50.744;7.086;2024-01-15T08:22:58;3.40;99.90
15765;DHT22;7983;50.744;7.086;2024-01-15T08:25:24;3.40;99.90
15765;DHT22;7983;50.744;7.086;2024-01-15T08:27:51;3.50;99.90
15765;DHT22;7983;50.744;7.086;2024-01-15T08:30:17;3.50;99.90
15765;DHT22;7983;50.744;7.086;2024-01-15T08:32:45;3.50;99.90
15765;DHT22;7983;50.744;7.086;2024-01-15T08:35:13;3.50;99.90
15765;DHT22;7983;50.744;7.086;2024-01-15T08:37:41;3.60;99.90
15765;DHT22;7983;50.744;7.086;2024-01-15T08:40:07;3.60;99.90
15765;DHT22;7983;50.744;7.086;2024-01-15T08:42:37;3.60;99.90
15765;DHT22;7983;50.744;7.086;2024-01-15T08:45:06;3.70;99.90
15765;DHT22;7983;50.744;7.086;2024-01-15T08:47:32;3.70;99.90
15765;DHT22;7983;50.744;7.086;2024-01-15T08:50:02;3.80;99.90
15765;DHT22;7983;50.744;7.086;2024-01-15T08:52:29;3.80;99.90
15765;DHT22;7983;50.744;7.086;2024-01-15T08:54:56;3.80;99.90
15765;DHT22;7983;50.744;7.086;2024-01-15T08:57:24;3.80;99.90
15765;DHT22;7983;50.744;7.086;2024-01-15T08:59:52;3.80;99.90
15765;DHT22;7983;50.744;7.086;2024-01-15T09:02:17;3.80;99.90
15765;DHT22;7983;50.744;7.086;2024-01-15T09:04:43;3.80;99.90
15765;DHT22;7983;50.744;7.086;2024-01-15T09:07:08;3.80;99.90
15765;DHT22;7983;50.744;7.086;2024-01-15T09:09:36;3.80;99.90
15765;DHT22;7983;50.744;7.086;2024-01-15T09:12:02;3.80;99.90
15765;DHT22;7983;50.744;7.086;2024-01-15T09:14:28;3.90;99.90
15765;DHT22;7983;50.744;7.086;2024-01-15T09:16:56;3.90;99.90
15765;DHT22;7983;50.744;7.086;2024-01-15T09:19:24;3.90;99.90
15765;DHT22;7983;50.744;7.086;2024-01-15T09:21:53;3.90;99.90
15765;DHT22;7983;50.744;7.086;2024-01-15T09:24:21;3.90;99.90
15765;DHT22;7983;50.744;7.086;2024-01-15T09:26:46;3.90;99.90
15765;DHT22;7983;50.744;7.086;2024-01-15T09:29:14;3.90;99.90
15765;DHT22;7983;50.744;7.086;2024-01-15T09:31:43;3.90;99.90
15765;DHT22;7983;50.744;7.086;2024-01-15T09:34:13;4.00;99.90
15765;DHT22;7983;50.744;7.086;2024-01-15T09:36:40;4.00;99.90
15765;DHT22;7983;50.744;7.086;2024-01-15T09:39:09;4.00;99.90
15765;DHT22;7983;50.744;7.086;2024-01-15T09:41:40;4.00;99.90
15765;DHT22;7983;50.744;7.086;2024-01-15T09:44:06;4.00;99.90
15765;DHT22;7983;50.744;7.086;2024-01-15T09:46:35;4.00;99.90
15765;DHT22;7983;50.744;7.086;2024-01-15T09:49:01;4.00;99.90
15765;DHT22;7983;50.744;7.086;2024-01-15T09:51:30;4.00;99.90
15765;DHT22;7983;50.744;7.086;2024-01-15T09:53:57;4.00;99.90
15765;DHT22;7983;50.744;7.086;2024-01-15T09:56:23;3.90;99.90
15765;DHT22;7983;50.744;7.086;2024-01-15T09:58:49;3.80;99.90
15765;DHT22;7983;50.744;7.086;2024-01-15T10:01:19;3.80;99.90
15765;DHT22;7983;50.744;7.086;2024-01-15T10:03:48;3.70;99.90
15765;DHT22;7983;50.744;7.086;2024-01-15T10:06:21;3.70;99.90
15765;DHT22;7983;50.744;7.086;2024-01-15T10:08:49;3.60;99.90
15765;DHT22;7983;50.744;7.086;2024-01-15T10:11:19;3.50;99.90
15765;DHT22;7983;50.744;7.086;2024-01-15T10:13:47;3.50;99.90
15765;DHT22;7983;50.744;7.086;2024-01-15T10:16:21;3.40;99.90
15765;DHT22;7983;50.744;7.086;2024-01-15T10:18:50;3.30;99.90
15765;DHT22;7983;50.744;7.086;2024-01-15T10:21:16;3.30;99.90
15765;DHT22;7983;50.744;7.086;2024-01-15T10:23:42;3.20;99.90
15765;DHT22;7983;50.744;7.086;2024-01-15T10:26:10;3.20;99.90
15765;DHT22;7983;50.744;7.086;2024-01-15T10:28:37;3.10;99.90
15765;DHT22;7983;50.744;7.086;2024-01-15T10:31:05;3.10;99.90
15765;DHT22;7983;50.744;7.086;2024-01-15T10:33:33;3.10;99.90
15765;DHT22;7983;50.744;7.086;2024-01-15T10:36:03;3.10;99.90
15765;DHT22;7983;50.744;7.086;2024-01-15T10:38:36;3.10;99.90
15765;DHT22;7983;50.744;7.086;2024-01-15T10:41:04;3.10;99.90
15765;DHT22;7983;50.744;7.086;2024-01-15T10:43:32;3.10;99.90
15765;DHT22;7983;50.744;7.086;2024-01-15T10:45:59;3.10;99.90
15765;DHT22;7983;50.744;7.086;2024-01-15T10:48:25;3.10;99.90
15765;DHT22;7983;50.744;7.086;2024-01-15T10:50:59;3.00;99.90
15765;DHT22;7983;50.744;7.086;2024-01-15T10:53:29;3.00;99.90
15765;DHT22;7983;50.744;7.086;2024-01-15T10:55:59;2.90;99.90
15765;DHT22;7983;50.744;7.086;2024-01-15T10:58:29;2.90;99.90
15765;DHT22;7983;50.744;7.086;2024-01-15T11:00:56;3.00;99.90
15765;DHT22;7983;50.744;7.086;2024-01-15T11:03:22;2.90;99.90
15765;DHT22;7983;50.744;7.086;2024-01-15T11:05:50;2.90;99.90
15765;DHT22;7983;50.744;7.086;2024-01-15T11:08:19;2.90;99.90
15765;DHT22;7983;50.744;7.086;2024-01-15T11:10:50;2.90;99.90
15765;DHT22;7983;50.744;7.086;2024-01-15T11:18:25;2.90;99.90
15765;DHT22;7983;50.744;7.086;2024-01-15T11:23:56;2.70;99.90
15765;DHT22;7983;50.744;7.086;2024-01-15T11:29:01;2.70;99.90
15765;DHT22;7983;50.744;7.086;2024-01-15T11:34:09;2.70;99.90
15765;DHT22;7983;50.744;7.086;2024-01-15T11:42:01;2.70;99.90
15765;DHT22;7983;50.744;7.086;2024-01-15T11:44:27;2.70;99.90
15765;DHT22;7983;50.744;7.086;2024-01-15T11:47:09;2.70;99.90
15765;DHT22;7983;50.744;7.086;2024-01-15T11:49:58;2.70;99.90
15765;DHT22;7983;50.744;7.086;2024-01-15T11:52:25;2.70;99.90
15765;DHT22;7983;50.744;7.086;2024-01-15T11:55:12;2.70;99.90
15765;DHT22;7983;50.744;7.086;2024-01-15T12:00:10;2.70;99.90
15765;DHT22;7983;50.744;7.086;2024-01-15T12:02:42;2.70;99.90
15765;DHT22;7983;50.744;7.086;2024-01-15T12:05:12;2.70;99.90
15765;DHT22;7983;50.744;7.086;2024-01-15T12:07:42;2.80;99.90
15765;DHT22;7983;50.744;7.086;2024-01-15T12:10:12;2.80;99.90
15765;DHT22;7983;50.744;7.086;2024-01-15T12:13:00;2.80;99.90
15765;DHT22;7983;50.744;7.086;2024-01-15T12:15:29;2.80;99.90
15765;DHT22;7983;50.744;7.086;2024-01-15T12:18:02;2.90;99.90
15765;DHT22;7983;50.744;7.086;2024-01-15T12:20:29;2.90;99.90
15765;DHT22;7983;50.744;7.086;2024-01-15T12:22:57;2.90;99.90
15765;DHT22;7983;50.744;7.086;2024-01-15T12:25:24;3.00;99.90
15765;DHT22;7983;50.744;7.086;2024-01-15T12:27:53;3.00;99.90
15765;DHT22;7983;50.744;7.086;2024-01-15T12:30:19;3.00;99.90
15765;DHT22;7983;50.744;7.086;2024-01-15T12:32:45;3.00;99.90
15765;DHT22;7983;50.744;7.086;2024-01-15T12:35:14;3.10;99.90
15765;DHT22;7983;50.744;7.086;2024-01-15T12:37:41;3.10;99.90
15765;DHT22;7983;50.744;7.086;2024-01-15T12:40:10;3.20;99.90
15765;DHT22;7983;50.744;7.086;2024-01-15T12:42:36;3.20;99.90
15765;DHT22;7983;50.744;7.086;2024-01-15T12:45:03;3.20;99.90
15765;DHT22;7983;50.744;7.086;2024-01-15T12:47:32;3.30;99.90
15765;DHT22;7983;50.744;7.086;2024-01-15T12:49:58;3.60;99.90
15765;DHT22;7983;50.744;7.086;2024-01-15T12:52:29;3.80;99.90
15765;DHT22;7983;50.744;7.086;2024-01-15T12:54:55;3.90;99.90
15765;DHT22;7983;50.744;7.086;2024-01-15T12:57:21;4.10;99.90
15765;DHT22;7983;50.744;7.086;2024-01-15T12:59:47;4.20;99.90
15765;DHT22;7983;50.744;7.086;2024-01-15T13:02:13;4.10;99.90
15765;DHT22;7983;50.744;7.086;2024-01-15T13:04:39;4.10;99.90
15765;DHT22;7983;50.744;7.086;2024-01-15T13:07:06;4.20;99.90
15765;DHT22;7983;50.744;7.086;2024-01-15T13:09:32;4.10;99.90
15765;DHT22;7983;50.744;7.086;2024-01-15T13:12:01;4.00;99.90
15765;DHT22;7983;50.744;7.086;2024-01-15T13:14:28;4.00;99.90
15765;DHT22;7983;50.744;7.086;2024-01-15T13:16:56;4.00;99.90
15765;DHT22;7983;50.744;7.086;2024-01-15T13:19:22;4.00;99.90
15765;DHT22;7983;50.744;7.086;2024-01-15T13:21:48;4.00;99.90
15765;DHT22;7983;50.744;7.086;2024-01-15T13:24:18;4.00;99.90
15765;DHT22;7983;50.744;7.086;2024-01-15T13:26:44;4.00;99.90
15765;DHT22;7983;50.744;7.086;2024-01-15T13:29:10;4.10;99.90
15765;DHT22;7983;50.744;7.086;2024-01-15T13:31:35;4.10;99.90
15765;DHT22;7983;50.744;7.086;2024-01-15T13:34:03;4.00;99.90
15765;DHT22;7983;50.744;7.086;2024-01-15T13:36:49;4.10;99.90
15765;DHT22;7983;50.744;7.086;2024-01-15T13:39:23;4.10;99.90
15765;DHT22;7983;50.744;7.086;2024-01-15T13:42:27;4.10;99.90
15765;DHT22;7983;50.744;7.086;2024-01-15T13:45:53;4.00;99.90
15765;DHT22;7983;50.744;7.086;2024-01-15T13:48:22;4.10;99.90
15765;DHT22;7983;50.744;7.086;2024-01-15T13:50:48;4.10;99.90
15765;DHT22;7983;50.744;7.086;2024-01-15T13:53:16;4.00;99.90
15765;DHT22;7983;50.744;7.086;2024-01-15T13:55:41;4.00;99.90
15765;DHT22;7983;50.744;7.086;2024-01-15T13:58:09;4.00;99.90
15765;DHT22;7983;50.744;7.086;2024-01-15T14:00:35;4.00;99.90
15765;DHT22;7983;50.744;7.086;2024-01-15T14:03:01;4.00;99.90
15765;DHT22;7983;50.744;7.086;2024-01-15T14:05:31;3.90;99.90
15765;DHT22;7983;50.744;7.086;2024-01-15T14:07:57;3.90;99.90
15765;DHT22;7983;50.744;7.086;2024-01-15T14:10:24;3.90;99.90
15765;DHT22;7983;50.744;7.086;2024-01-15T14:12:49;3.90;99.90
15765;DHT22;7983;50.744;7.086;2024-01-15T14:15:15;3.90;99.90
15765;DHT22;7983;50.744;7.086;2024-01-15T14:17:40;3.90;99.90
15765;DHT22;7983;50.744;7.086;2024-01-15T14:20:09;3.90;99.90
15765;DHT22;7983;50.744;7.086;2024-01-15T14:22:35;3.80;99.90
15765;DHT22;7983;50.744;7.086;2024-01-15T14:25:03;3.80;99.90
15765;DHT22;7983;50.744;7.086;2024-01-15T14:27:32;3.80;99.90
15765;DHT22;7983;50.744;7.086;2024-01-15T14:30:00;3.70;99.90
15765;DHT22;7983;50.744;7.086;2024-01-15T14:32:26;3.70;99.90
15765;DHT22;7983;50.744;7.086;2024-01-15T14:34:51;3.70;99.90
15765;DHT22;7983;50.744;7.086;2024-01-15T14:37:17;3.60;99.90
15765;DHT22;7983;50.744;7.086;2024-01-15T14:39:42;3.60;99.90
15765;DHT22;7983;50.744;7.086;2024-01-15T14:42:10;3.60;99.90
15765;DHT22;7983;50.744;7.086;2024-01-15T14:44:39;3.60;99.90
15765;DHT22;7983;50.744;7.086;2024-01-15T14:47:06;3.60;99.90
15765;DHT22;7983;50.744;7.086;2024-01-15T14:49:36;3.50;99.90
15765;DHT22;7983;50.744;7.086;2024-01-15T14:52:02;3.50;99.90
15765;DHT22;7983;50.744;7.086;2024-01-15T14:54:28;3.50;99.90
15765;DHT22;7983;50.744;7.086;2024-01-15T14:56:53;3.50;99.90
15765;DHT22;7983;50.744;7.086;2024-01-15T14:59:22;3.50;99.90
15765;DHT22;7983;50.744;7.086;2024-01-15T15:01:47;3.50;99.90
15765;DHT22;7983;50.744;7.086;2024-01-15T15:04:13;3.40;99.90
15765;DHT22;7983;50.744;7.086;2024-01-15T15:06:39;3.30;99.90
15765;DHT22;7983;50.744;7.086;2024-01-15T15:09:04;3.40;99.90
15765;DHT22;7983;50.744;7.086;2024-01-15T15:11:38;3.30;99.90
15765;DHT22;7983;50.744;7.086;2024-01-15T15:14:03;3.20;99.90
15765;DHT22;7983;50.744;7.086;2024-01-15T15:16:30;3.10;99.90
15765;DHT22;7983;50.744;7.086;2024-01-15T15:18:58;3.10;99.90
15765;DHT22;7983;50.744;7.086;2024-01-15T15:21:24;3.00;99.90
15765;DHT22;7983;50.744;7.086;2024-01-15T15:23:49;3.00;99.90
15765;DHT22;7983;50.744;7.086;2024-01-15T15:26:18;3.10;99.90
15765;DHT22;7983;50.744;7.086;2024-01-15T15:28:45;3.00;99.90
15765;DHT22;7983;50.744;7.086;2024-01-15T15:31:11;3.00;99.90
15765;DHT22;7983;50.744;7.086;2024-01-15T15:33:39;3.00;99.90
15765;DHT22;7983;50.744;7.086;2024-01-15T15:36:07;3.00;99.90
15765;DHT22;7983;50.744;7.086;2024-01-15T15:38:33;3.00;99.90
15765;DHT22;7983;50.744;7.086;2024-01-15T15:40:58;3.00;99.90
15765;DHT22;7983;50.744;7.086;2024-01-15T15:43:27;3.00;99.90
15765;DHT22;7983;50.744;7.086;2024-01-15T15:45:53;3.00;99.90
15765;DHT22;7983;50.744;7.086;2024-01-15T15:48:18;3.00;99.90
15765;DHT22;7983;50.744;7.086;2024-01-15T15:50:44;3.00;99.90
15765;DHT22;7983;50.744;7.086;2024-01-15T15:53:10;3.00;99.90
15765;DHT22;7983;50.744;7.086;2024-01-15T15:55:36;3.00;99.90
15765;DHT22;7983;50.744;7.086;2024-01-15T15:58:03;3.00;99.90
15765;DHT22;7983;50.744;7.086;2024-01-15T16:00:31;3.00;99.90
15765;DHT22;7983;50.744;7.086;2024-01-15T16:02:57;2.90;99.90
15765;DHT22;7983;50.744;7.086;2024-01-15T16:05:25;3.00;99.90
15765;DHT22;7983;50.744;7.086;2024-01-15T16:07:51;2.90;99.90
15765;DHT22;7983;50.744;7.086;2024-01-15T16:10:17;2.90;99.90
15765;DHT22;7983;50.744;7.086;2024-01-15T16:12:44;2.90;99.90
15765;DHT22;7983;50.744;7.086;2024-01-15T16:17:43;2.90;99.90
15765;DHT22;7983;50.744;7.086;2024-01-15T16:20:11;2.90;99.90
15765;DHT22;7983;50.744;7.086;2024-01-15T16:22:39;2.90;99.90
15765;DHT22;7983;50.744;7.086;2024-01-15T16:25:07;2.90;99.90
15765;DHT22;7983;50.744;7.086;2024-01-15T16:27:33;3.00;99.90